Kurchatov, Russia
Current Conditions -  °F | °C
As of 9:00 PM on Wednesday 22 Oct 2014 (Local Time) from UUOK Reporting Station
Overcast Overcast  
Wind Chill: 22°   Ceiling: 2100
Heat Index: 30°   Visibility: 6mi
Dew Point: 21°   Wind: 9mph
Humidity: 69%   Direction: 20°NNE
Pressure: 30"   Gusts: NA
Location:  51.59°N, 35.65°E
Report Text: UUOK 221800Z 02004MPS 9999 OVC021 M01/M06 Q1016 NOSIG RMK30CLRD70
Loading
Personal Weather Stations






























Interactive Weather Map
Tropical Storm Tracking
New forecast layout! Learn more

10-Day Weather Forecast

Advertisements
Track Severe Weather on mobile